Data for 01/16/2009

Time Sea-Level Adjusted Pressure Absolute Pressure Temperature Relative Humidity Dew Point   
(mb) (inHg) (mb) (inHg) (C) (F) (%) (C) (F)
00:05 1029 30.39 858 25.34 -0.4 31.3 69 -5.3 22.4
00:10 1029 30.39 858 25.34 0 32 70 -4.8 23.4
00:15 1029 30.39 858 25.34 0.2 32.4 68 -4.9 23.2
00:20 1029 30.39 858 25.34 0.6 33.1 68 -4.6 23.7
00:25 1029 30.39 858 25.34 0.6 33 67 -4.8 23.3
00:30 1029 30.39 858 25.34 0.4 32.7 68 -4.9 23.1
00:35 1029 30.39 858 25.34 0.2 32.4 68 -4.9 23.1
00:40 1029 30.39 858 25.34 0.2 32.3 69 -4.8 23.4
00:45 1029 30.39 858 25.34 0.2 32.3 68 -4.9 23.1
00:50 1029 30.39 858 25.34 0.2 32.4 69 -4.7 23.5
00:55 1029 30.39 858 25.34 0.3 32.5 69 -4.6 23.6
01:00 1029 30.39 858 25.34 0.2 32.3 69 -4.9 23.2
01:05 1029 30.39 858 25.34 -0.2 31.6 73 -4.5 23.9
01:10 1029 30.39 858 25.34 0.1 32.2 67 -5.3 22.4
01:15 1029 30.39 858 25.34 1.3 34.3 64 -4.9 23.2
01:20 1029 30.39 858 25.34 1 33.7 66 -4.7 23.5
01:25 1029 30.39 858 25.34 1 33.7 65 -5 23
01:30 1029 30.39 858 25.34 1.1 34 66 -4.5 23.9
01:35 1029 30.39 858 25.34 0.4 32.7 67 -5 23.1
01:40 1029 30.39 858 25.34 0.2 32.4 68 -5.1 22.9
01:45 1029 30.39 858 25.34 -0 32 69 -5.1 22.9
01:50 1029 30.39 858 25.34 -0.2 31.6 69 -5.1 22.8
01:55 1029 30.39 858 25.34 -0.2 31.7 69 -5.1 22.8
02:00 1029 30.39 858 25.34 -0.1 31.9 68 -5.3 22.5
02:05 1029 30.39 858 25.34 -0 31.9 69 -5.1 22.8
02:10 1029 30.39 858 25.34 -0.2 31.6 69 -5.2 22.7
02:15 1029 30.39 858 25.34 -0.3 31.5 69 -5.2 22.6
02:20 1029 30.39 858 25.34 -0.2 31.7 69 -5.2 22.6
02:25 1029 30.39 858 25.34 -0.1 31.8 69 -5.2 22.6
02:30 1029 30.39 858 25.34 -0.2 31.7 70 -5 23.1
02:35 1029 30.39 858 25.34 -0.2 31.6 69 -5.2 22.7
02:40 1029 30.39 858 25.34 -0.3 31.4 70 -5.2 22.6
02:45 1029 30.39 858 25.34 -0.5 31.2 70 -5.3 22.4
02:50 1029 30.39 858 25.34 -0.6 30.9 70 -5.3 22.4
02:55 1029 30.39 858 25.34 -0.7 30.7 71 -5.3 22.4
03:00 1029 30.39 858 25.34 -1.1 30 73 -5.4 22.3
03:05 1029 30.39 858 25.34 -1.3 29.6 73 -5.5 22
03:10 1029 30.39 858 25.34 -1.3 29.7 73 -5.5 22.1
03:15 1029 30.39 858 25.34 -1.2 29.8 73 -5.6 22
03:20 1029 30.39 858 25.34 -1.2 29.9 72 -5.7 21.8
03:25 1029 30.39 858 25.34 -1.1 30 71 -5.7 21.8
03:30 1029 30.39 858 25.34 -1 30.1 71 -5.6 21.9
03:35 1029 30.39 858 25.34 -1 30.1 71 -5.6 22
03:40 1029 30.39 858 25.34 -0.6 30.9 69 -5.6 22
03:45 1029 30.39 858 25.34 -0.3 31.4 68 -5.5 22.2
03:50 1029 30.39 858 25.34 -0.3 31.5 67 -5.6 21.9
03:55 1029 30.39 858 25.34 -0.2 31.6 67 -5.5 22
04:00 1029 30.39 858 25.34 -0.4 31.3 68 -5.6 22
04:05 1029 30.39 858 25.34 -0.5 31.1 68 -5.6 21.9
04:10 1029 30.39 858 25.34 -0.6 31 68 -5.7 21.8
04:15 1029 30.39 858 25.34 -0.6 31 68 -5.7 21.7
04:20 1029 30.39 858 25.34 -0.4 31.3 68 -5.6 21.8
04:25 1029 30.39 858 25.34 -0.4 31.3 69 -5.5 22.1
04:30 1029 30.39 858 25.34 -0.5 31.2 70 -5.3 22.5
04:35 1029 30.39 858 25.34 -0.6 30.9 69 -5.6 21.8
04:40 1029 30.39 858 25.34 -0.7 30.7 69 -5.8 21.6
04:45 1029 30.39 858 25.34 -0.8 30.7 68 -6 21.2
04:50 1029 30.39 858 25.34 -1 30.2 70 -5.9 21.4
04:55 1029 30.39 858 25.34 -1.2 29.8 69 -6.2 20.9
05:00 1029 30.39 858 25.34 -1.4 29.5 72 -5.8 21.5
05:05 1029 30.39 858 25.34 -1.1 30 69 -6.1 20.9
05:10 1029 30.39 858 25.34 -1.5 29.2 71 -6.1 21
05:15 1029 30.39 858 25.34 -1.2 29.9 69 -6.1 21
05:20 1029 30.39 858 25.34 -1.8 28.8 72 -6.1 21
05:25 1029 30.39 858 25.34 -1.5 29.4 71 -6.1 21
05:30 1029 30.39 858 25.34 -1.7 29 73 -5.9 21.4
05:35 1029 30.39 858 25.34 -1.5 29.3 73 -5.8 21.5
05:40 1029 30.39 858 25.34 -1.5 29.4 74 -5.6 22
05:45 1029 30.39 858 25.34 -1.4 29.5 74 -5.5 22.1
05:50 1029 30.39 858 25.34 -1.3 29.6 73 -5.5 22.1
05:55 1029 30.39 858 25.34 -1.3 29.6 73 -5.5 22.1
06:00 1029 30.39 858 25.34 -1.7 29 75 -5.5 22.1
06:05 1029 30.39 858 25.34 -2 28.4 75 -5.8 21.6
06:10 1029 30.39 858 25.34 -1.6 29.1 74 -5.6 22
06:15 1029 30.39 858 25.34 -1.3 29.7 72 -5.6 21.9
06:20 1029 30.39 858 25.34 -1.5 29.2 74 -5.6 21.9
06:25 1029 30.39 858 25.34 -2 28.4 76 -5.7 21.7
06:30 1029 30.39 858 25.34 -2.2 28.1 76 -5.8 21.6
06:35 1029 30.39 858 25.34 -2.2 28 77 -5.8 21.5
06:40 1029 30.39 858 25.34 -1.9 28.5 75 -5.7 21.7
06:45 1029 30.39 858 25.34 -1.9 28.6 75 -5.7 21.7
06:50 1029 30.39 858 25.34 -1.9 28.6 75 -5.8 21.6
06:55 1029 30.39 858 25.34 -1.8 28.8 73 -6 21.2
07:00 1028 30.36 858 25.34 -1.6 29.2 73 -5.8 21.6
07:05 1029 30.39 858 25.34 -1.9 28.5 72 -6.2 20.8
07:10 1029 30.39 858 25.34 -1.6 29.1 71 -6.3 20.7
07:15 1029 30.39 858 25.34 -1.5 29.3 68 -6.6 20.1
07:20 1029 30.39 858 25.34 -1.9 28.5 68 -7 19.4
07:25 1029 30.39 858 25.34 -2.2 28 70 -6.9 19.6
07:30 1029 30.39 858 25.34 -2.7 27.2 71 -7.2 19
07:35 1028 30.36 858 25.34 -2.7 27.1 69 -7.6 18.3
07:40 1028 30.36 858 25.34 -2.1 28.2 68 -7.2 19.1
07:45 1028 30.36 858 25.34 -1.7 28.9 64 -7.7 18.2
07:50 1028 30.36 858 25.34 -1.7 29 67 -7 19.3
07:55 1028 30.36 858 25.34 -2.5 27.5 70 -7.3 18.9
08:00 1028 30.36 857 25.31 -3 26.6 71 -7.6 18.3
08:05 1028 30.36 857 25.31 -3.1 26.4 71 -7.6 18.4
08:10 1028 30.36 857 25.31 -3.5 25.6 74 -7.6 18.4
08:15 1028 30.36 858 25.34 -2.7 27.2 71 -7.2 19.1
08:20 1028 30.36 858 25.34 -2.7 27.1 75 -6.6 20.1
08:25 1028 30.36 858 25.34 -2.8 26.9 74 -6.8 19.7
08:30 1028 30.36 858 25.34 -2.3 27.8 72 -6.8 19.8
08:35 1028 30.36 858 25.34 -1.7 28.9 69 -6.7 19.9
08:40 1028 30.36 858 25.34 -1.4 29.5 69 -6.4 20.5
08:45 1028 30.36 858 25.34 -1.8 28.7 69 -6.7 19.9
08:50 1029 30.39 858 25.34 -1.5 29.4 67 -6.9 19.6
08:55 1028 30.36 858 25.34 -1 30.2 65 -6.7 19.9
09:00 1028 30.36 858 25.34 -1.1 30.1 66 -6.5 20.2
09:05 1028 30.36 858 25.34 -1.1 30 66 -6.8 19.8
09:10 1028 30.36 858 25.34 -0.8 30.7 65 -6.6 20.2
09:15 1029 30.39 858 25.34 -0.3 31.5 62 -6.6 20.1
09:20 1028 30.36 858 25.34 0 32.1 62 -6.3 20.6
09:25 1028 30.36 858 25.34 -0.1 31.9 62 -6.5 20.2
09:30 1028 30.36 858 25.34 0.4 32.8 60 -6.5 20.3
09:35 1028 30.36 858 25.34 0.5 32.9 61 -6.2 20.8
09:40 1028 30.36 858 25.34 0.1 32.2 61 -6.5 20.3
09:45 1028 30.36 858 25.34 0.2 32.4 61 -6.5 20.2
09:50 1028 30.36 858 25.34 0.4 32.7 59 -6.8 19.8
09:55 1028 30.36 858 25.34 1.1 33.9 56 -6.6 20.1
10:00 1028 30.36 858 25.34 1.7 35.1 55 -6.3 20.7
10:05 1028 30.36 858 25.34 2.2 36 53 -6.3 20.7
10:10 1028 30.36 858 25.34 3 37.4 49 -6.6 20.1
10:15 1028 30.36 857 25.31 3.7 38.7 48 -6.4 20.5
10:20 1028 30.36 857 25.31 4 39.2 45 -6.9 19.5
10:25 1028 30.36 857 25.31 4.3 39.7 45 -6.7 19.9
10:30 1028 30.36 857 25.31 4.3 39.8 46 -6.3 20.6
10:35 1028 30.36 857 25.31 4.1 39.4 46 -6.4 20.6
10:40 1028 30.36 857 25.31 3.7 38.6 49 -6 21.2
10:45 1028 30.36 857 25.31 3.5 38.3 48 -6.4 20.4
10:50 1028 30.36 857 25.31 3.8 38.8 46 -6.7 19.9
10:55 1028 30.36 857 25.31 3.2 37.8 49 -6.5 20.4
11:00 1028 30.36 857 25.31 2.7 36.8 52 -6.2 20.9
11:05 1028 30.36 857 25.31 2.2 35.9 54 -6.3 20.7
11:10 1028 30.36 857 25.31 2.6 36.8 49 -7 19.5
11:15 1028 30.36 857 25.31 3.7 38.7 46 -6.8 19.8
11:20 1028 30.36 857 25.31 3.7 38.7 49 -6.2 20.9
11:25 1028 30.36 857 25.31 3.3 37.9 49 -6.5 20.2
11:30 1028 30.36 857 25.31 3.2 37.8 49 -6.5 20.2
11:35 1028 30.36 857 25.31 3.8 38.8 51 -5.3 22.4
11:40 1028 30.36 857 25.31 3.8 38.8 54 -4.6 23.7
11:45 1028 30.36 857 25.31 3.4 38.2 56 -4.6 23.7
11:50 1028 30.36 857 25.31 3.2 37.8 57 -4.6 23.8
11:55 1028 30.36 857 25.31 3.7 38.6 56 -4.2 24.4
12:00 1028 30.36 857 25.31 3.9 38.9 55 -4.5 24
12:05 1028 30.36 857 25.31 4.4 40 51 -4.8 23.4
12:10 1028 30.36 857 25.31 4.4 39.9 52 -4.5 23.9
12:15 1027 30.33 857 25.31 4.5 40 51 -4.8 23.3
12:20 1027 30.33 857 25.31 4.7 40.4 48 -5.5 22.1
12:25 1027 30.33 857 25.31 5.3 41.5 48 -5 23.1
12:30 1027 30.33 857 25.31 4.7 40.5 51 -4.5 23.9
12:35 1027 30.33 857 25.31 4.2 39.5 50 -5.3 22.5
12:40 1027 30.33 856 25.28 4.5 40.1 49 -5.2 22.7
12:45 1027 30.33 856 25.28 4.1 39.4 54 -4.5 24
12:50 1027 30.33 856 25.28 4 39.1 54 -4.5 23.9
12:55 1027 30.33 856 25.28 3.8 38.8 55 -4.5 23.9
13:00 1027 30.33 856 25.28 4.3 39.8 51 -4.9 23.1
13:05 1027 30.33 856 25.28 4.7 40.4 50 -4.9 23.1
13:10 1027 30.33 856 25.28 4.6 40.3 50 -4.8 23.4
13:15 1027 30.33 856 25.28 5.1 41.2 46 -5.5 22.1
13:20 1027 30.33 856 25.28 5.9 42.6 44 -5.6 22
13:25 1027 30.33 856 25.28 6.5 43.8 42 -5.4 22.2
13:30 1027 30.33 856 25.28 6.6 43.9 42 -5.3 22.5
13:35 1027 30.33 856 25.28 6.9 44.4 42 -5.3 22.5
13:40 1027 30.33 856 25.28 7 44.6 42 -5.1 22.9
13:45 1027 30.33 856 25.28 8 46.3 38 -5.4 22.3
13:50 1027 30.33 856 25.28 8.2 46.7 39 -4.9 23.2
13:55 1027 30.33 856 25.28 7.8 46 44 -3.6 25.5
14:00 1027 30.33 856 25.28 7.6 45.6 42 -4.6 23.6
14:05 1027 30.33 856 25.28 7.7 45.8 44 -3.9 25
14:10 1027 30.33 856 25.28 8 46.4 40 -4.6 23.8
14:15 1026 30.3 856 25.28 8 46.4 42 -4.2 24.4
14:20 1026 30.3 856 25.28 7 44.7 44 -4.5 24
14:25 1026 30.3 856 25.28 6.3 43.4 43 -5.3 22.5
14:30 1026 30.3 856 25.28 6.9 44.4 42 -5.1 22.8
14:35 1026 30.3 856 25.28 7.1 44.8 41 -5.2 22.6
14:40 1026 30.3 856 25.28 7.1 44.8 40 -5.5 22.1
14:45 1026 30.3 856 25.28 7.8 46 39 -5.4 22.3
14:50 1027 30.33 856 25.28 8.1 46.6 37 -5.8 21.5
14:55 1027 30.33 856 25.28 7.6 45.6 37 -6.1 21
15:00 1026 30.3 856 25.28 7.6 45.7 37 -6.1 21.1
15:05 1026 30.3 856 25.28 7.4 45.3 38 -6.1 21
15:10 1026 30.3 856 25.28 8 46.3 35 -6.4 20.4
15:15 1026 30.3 856 25.28 8.3 46.9 35 -6.2 20.9
15:20 1026 30.3 856 25.28 8 46.5 37 -5.7 21.7
15:25 1026 30.3 856 25.28 8.1 46.5 36 -6.2 20.8
15:30 1026 30.3 856 25.28 8.3 46.9 35 -6.3 20.7
15:35 1026 30.3 856 25.28 8.3 47 36 -5.9 21.3
15:40 1026 30.3 856 25.28 7.7 45.9 38 -5.7 21.8
15:45 1026 30.3 856 25.28 7.8 46 37 -6.1 21
15:50 1026 30.3 855 25.25 8.4 47.1 35 -6.2 20.9
15:55 1026 30.3 856 25.28 8.8 47.8 34 -6.3 20.7
16:00 1026 30.3 856 25.28 7.9 46.2 38 -5.4 22.3
16:05 1026 30.3 856 25.28 7.3 45.1 44 -4.1 24.7
16:10 1026 30.3 856 25.28 7.2 44.9 45 -3.9 24.9
16:15 1026 30.3 856 25.28 6.9 44.4 46 -3.8 25.2
16:20 1026 30.3 856 25.28 7 44.7 46 -3.7 25.3
16:25 1026 30.3 856 25.28 6.9 44.5 46 -3.9 24.9
16:30 1027 30.33 856 25.28 6.9 44.4 46 -4 24.8
16:35 1027 30.33 856 25.28 6.9 44.4 46 -4 24.9
16:40 1027 30.33 856 25.28 6.4 43.5 47 -4 24.9
16:45 1027 30.33 856 25.28 6.1 43 48 -4.1 24.6
16:50 1027 30.33 856 25.28 6.6 43.9 46 -4.2 24.4
16:55 1027 30.33 856 25.28 7 44.7 45 -4.1 24.6
17:00 1027 30.33 856 25.28 7.1 44.8 47 -3.5 25.7
17:05 1027 30.33 856 25.28 6.1 43 49 -3.8 25.2
17:10 1027 30.33 856 25.28 5.2 41.4 50 -4.4 24.1
17:15 1027 30.33 856 25.28 4.9 40.9 50 -4.7 23.5
17:20 1027 30.33 857 25.31 4.7 40.5 48 -5.3 22.5
17:25 1027 30.33 857 25.31 4.6 40.3 51 -4.5 23.9
17:30 1028 30.36 857 25.31 4.8 40.6 46 -5.7 21.7
17:35 1028 30.36 857 25.31 4.9 40.8 48 -5.3 22.5
17:40 1028 30.36 857 25.31 4.7 40.5 47 -5.7 21.8
17:45 1028 30.36 857 25.31 4.7 40.5 46 -5.9 21.4
17:50 1028 30.36 857 25.31 4.4 39.9 46 -6.3 20.7
17:55 1028 30.36 857 25.31 4.2 39.5 48 -5.9 21.5
18:00 1028 30.36 857 25.31 4 39.2 46 -6.6 20
18:05 1028 30.36 857 25.31 3.8 38.8 46 -6.7 19.9
18:10 1028 30.36 857 25.31 3.4 38.2 45 -7.3 18.9
18:15 1028 30.36 857 25.31 3.8 38.8 44 -7.5 18.5
18:20 1028 30.36 857 25.31 4 39.2 45 -7 19.4
18:25 1028 30.36 857 25.31 3.5 38.2 50 -5.9 21.3
18:30 1028 30.36 857 25.31 2.6 36.8 51 -6.6 20.1
18:35 1028 30.36 857 25.31 2.4 36.4 49 -7.3 18.9
18:40 1028 30.36 857 25.31 3.2 37.8 44 -8 17.7
18:45 1028 30.36 857 25.31 3.1 37.6 48 -6.8 19.8
18:50 1028 30.36 857 25.31 3 37.4 48 -7 19.4
18:55 1028 30.36 858 25.34 2.2 36 53 -6.4 20.5
19:00 1028 30.36 858 25.34 1.4 34.6 54 -6.8 19.7
19:05 1029 30.39 858 25.34 1.3 34.3 51 -7.8 18
19:10 1029 30.39 858 25.34 2.9 37.2 43 -8.5 16.6
19:15 1029 30.39 858 25.34 4 39.1 47 -6.3 20.6
19:20 1029 30.39 858 25.34 2.1 35.8 52 -6.7 20
19:25 1029 30.39 858 25.34 2.1 35.7 47 -8.1 17.5
19:30 1029 30.39 858 25.34 3 37.4 43 -8.3 17.1
19:35 1029 30.39 858 25.34 3.6 38.5 42 -8.2 17.3
19:40 1029 30.39 858 25.34 3.9 39 41 -8.3 17
19:45 1029 30.39 858 25.34 4.3 39.8 41 -7.8 18
19:50 1029 30.39 858 25.34 3.9 39 43 -7.5 18.6
19:55 1029 30.39 858 25.34 3.3 38 47 -6.9 19.5
20:00 1029 30.39 858 25.34 2.5 36.6 49 -7.2 19.1
20:05 1029 30.39 858 25.34 2.2 35.9 51 -7 19.3
20:10 1029 30.39 859 25.37 1.7 35.1 52 -7.2 19.1
20:15 1029 30.39 859 25.37 2 35.6 48 -8 17.6
20:20 1029 30.39 859 25.37 2.4 36.3 50 -7.1 19.2
20:25 1030 30.42 859 25.37 2.2 35.9 49 -7.5 18.5
20:30 1030 30.42 859 25.37 1.9 35.3 50 -7.5 18.4
20:35 1029 30.39 859 25.37 2.2 36 50 -7.2 19.1
20:40 1030 30.42 859 25.37 2.2 36 50 -7.2 19
20:45 1030 30.42 859 25.37 1.7 35 52 -7.3 18.9
20:50 1030 30.42 859 25.37 1.3 34.4 52 -7.6 18.4
20:55 1030 30.42 859 25.37 1.3 34.4 52 -7.4 18.7
21:00 1030 30.42 859 25.37 0.9 33.7 52 -7.8 18
21:05 1030 30.42 859 25.37 1.4 34.6 49 -8.1 17.4
21:10 1030 30.42 859 25.37 1.8 35.3 49 -7.9 17.9
21:15 1030 30.42 859 25.37 2 35.6 48 -7.8 18
21:20 1030 30.42 859 25.37 2 35.7 48 -7.8 17.9
21:25 1030 30.42 859 25.37 2.3 36.1 47 -8 17.6
21:30 1030 30.42 859 25.37 2.2 35.9 48 -7.9 17.9
21:35 1030 30.42 859 25.37 1.7 35.1 52 -7.1 19.1
21:40 1030 30.42 860 25.4 0.7 33.3 52 -8 17.6
21:45 1030 30.42 860 25.4 1.4 34.5 49 -8.1 17.5
21:50 1030 30.42 860 25.4 1.8 35.2 47 -8.5 16.7
21:55 1030 30.42 860 25.4 1.9 35.5 49 -7.6 18.3
22:00 1031 30.45 860 25.4 1.4 34.4 50 -8 17.5
22:05 1031 30.45 860 25.4 1.3 34.3 50 -8.1 17.5
22:10 1031 30.45 860 25.4 1.3 34.3 50 -8.1 17.5
22:15 1031 30.45 860 25.4 1.7 35 48 -8.2 17.3
22:20 1031 30.45 860 25.4 1.8 35.2 49 -7.9 17.8
22:25 1031 30.45 860 25.4 0.9 33.7 52 -7.8 18
22:30 1031 30.45 860 25.4 0.5 32.9 53 -8.1 17.4
22:35 1031 30.45 860 25.4 0.4 32.6 53 -8.1 17.4
22:40 1031 30.45 860 25.4 0.5 33 52 -8.2 17.2
22:45 1031 30.45 860 25.4 0.6 33 52 -8.2 17.2
22:50 1031 30.45 860 25.4 0.9 33.7 49 -8.5 16.7
22:55 1031 30.45 860 25.4 1.3 34.4 49 -8.4 16.9
23:00 1031 30.45 860 25.4 1.3 34.3 48 -8.5 16.8
23:05 1031 30.45 860 25.4 1.2 34.1 49 -8.4 16.9
23:10 1031 30.45 860 25.4 1.1 34.1 48 -8.6 16.5
23:15 1031 30.45 860 25.4 1.4 34.5 48 -8.4 16.9
23:20 1031 30.45 860 25.4 1.5 34.7 48 -8.3 17
23:25 1031 30.45 860 25.4 1.3 34.3 50 -8.1 17.3
23:30 1031 30.45 860 25.4 0.3 32.6 51 -8.7 16.4
23:35 1031 30.45 860 25.4 0.4 32.6 51 -8.7 16.3
23:40 1031 30.45 860 25.4 0.4 32.8 50 -8.8 16.2
23:45 1031 30.45 860 25.4 0.2 32.3 53 -8.3 17.1
23:50 1031 30.45 860 25.4 -0.4 31.3 54 -8.5 16.6
23:55 1031 30.45 860 25.4 -0.9 30.4 57 -8.3 17
24:00 1031 30.45 860 25.4 -0.6 31 54 -8.6 16.4